sensor_id;sensor_type;location;lat;lon;timestamp;pressure;altitude;pressure_sealevel;temperature;humidity
30110;BME280;14965;50.660;13.226;2023-05-11T00:00:16;94623.94;;;11.14;100.00
30110;BME280;14965;50.660;13.226;2023-05-11T00:02:42;94617.66;;;11.14;100.00
30110;BME280;14965;50.660;13.226;2023-05-11T00:05:09;94617.47;;;11.08;100.00
30110;BME280;14965;50.660;13.226;2023-05-11T00:07:39;94615.88;;;11.07;100.00
30110;BME280;14965;50.660;13.226;2023-05-11T00:10:07;94610.81;;;11.06;100.00
30110;BME280;14965;50.660;13.226;2023-05-11T00:12:35;94609.28;;;11.05;100.00
30110;BME280;14965;50.660;13.226;2023-05-11T00:15:03;94609.41;;;11.01;100.00
30110;BME280;14965;50.660;13.226;2023-05-11T00:17:29;94604.34;;;11.00;100.00
30110;BME280;14965;50.660;13.226;2023-05-11T00:19:57;94603.22;;;10.97;100.00
30110;BME280;14965;50.660;13.226;2023-05-11T00:22:23;94604.75;;;10.98;100.00
30110;BME280;14965;50.660;13.226;2023-05-11T00:25:12;94602.34;;;11.00;100.00
30110;BME280;14965;50.660;13.226;2023-05-11T00:27:44;94597.13;;;11.02;100.00
30110;BME280;14965;50.660;13.226;2023-05-11T00:30:35;94597.47;;;11.04;100.00
30110;BME280;14965;50.660;13.226;2023-05-11T00:33:33;94586.41;;;11.04;100.00
30110;BME280;14965;50.660;13.226;2023-05-11T00:36:13;94591.03;;;11.07;100.00
30110;BME280;14965;50.660;13.226;2023-05-11T00:38:39;94580.75;;;11.08;100.00
30110;BME280;14965;50.660;13.226;2023-05-11T00:41:06;94578.31;;;11.10;100.00
30110;BME280;14965;50.660;13.226;2023-05-11T00:43:36;94581.06;;;11.10;100.00
30110;BME280;14965;50.660;13.226;2023-05-11T00:46:06;94579.84;;;11.11;100.00
30110;BME280;14965;50.660;13.226;2023-05-11T00:48:34;94582.28;;;11.09;100.00
30110;BME280;14965;50.660;13.226;2023-05-11T00:51:02;94580.31;;;11.09;100.00
30110;BME280;14965;50.660;13.226;2023-05-11T00:53:50;94590.91;;;11.11;100.00
30110;BME280;14965;50.660;13.226;2023-05-11T00:56:21;94582.94;;;11.13;100.00
30110;BME280;14965;50.660;13.226;2023-05-11T00:59:28;94586.00;;;11.15;100.00
30110;BME280;14965;50.660;13.226;2023-05-11T01:02:02;94586.00;;;11.15;100.00
30110;BME280;14965;50.660;13.226;2023-05-11T01:04:32;94584.03;;;11.15;100.00
30110;BME280;14965;50.660;13.226;2023-05-11T01:07:09;94586.91;;;11.12;100.00
30110;BME280;14965;50.660;13.226;2023-05-11T01:09:54;94585.06;;;11.09;100.00
30110;BME280;14965;50.660;13.226;2023-05-11T01:12:37;94586.72;;;11.06;100.00
30110;BME280;14965;50.660;13.226;2023-05-11T01:15:12;94584.41;;;11.05;100.00
30110;BME280;14965;50.660;13.226;2023-05-11T01:17:48;94583.19;;;11.06;100.00
30110;BME280;14965;50.660;13.226;2023-05-11T01:20:33;94579.66;;;11.05;100.00
30110;BME280;14965;50.660;13.226;2023-05-11T01:23:42;94576.13;;;11.05;100.00
30110;BME280;14965;50.660;13.226;2023-05-11T01:26:36;94576.44;;;11.07;100.00
30110;BME280;14965;50.660;13.226;2023-05-11T01:29:44;94579.53;;;11.09;100.00
30110;BME280;14965;50.660;13.226;2023-05-11T01:32:18;94572.31;;;11.11;100.00
30110;BME280;14965;50.660;13.226;2023-05-11T01:34:47;94572.66;;;11.13;100.00
30110;BME280;14965;50.660;13.226;2023-05-11T01:37:21;94582.03;;;11.16;100.00
30110;BME280;14965;50.660;13.226;2023-05-11T01:40:17;94573.72;;;11.16;100.00
30110;BME280;14965;50.660;13.226;2023-05-11T01:43:05;94577.41;;;11.13;100.00
30110;BME280;14965;50.660;13.226;2023-05-11T01:48:15;94576.00;;;11.08;100.00
30110;BME280;14965;50.660;13.226;2023-05-11T01:49:31;94577.13;;;10.98;100.00
30110;BME280;14965;50.660;13.226;2023-05-11T01:52:29;94580.94;;;10.91;99.77
30110;BME280;14965;50.660;13.226;2023-05-11T01:55:31;94583.25;;;10.93;99.37
30110;BME280;14965;50.660;13.226;2023-05-11T01:58:20;94592.28;;;10.93;98.00
30110;BME280;14965;50.660;13.226;2023-05-11T02:01:07;94582.00;;;10.94;97.62
30110;BME280;14965;50.660;13.226;2023-05-11T02:03:44;94582.47;;;10.92;97.02
30110;BME280;14965;50.660;13.226;2023-05-11T02:06:21;94580.94;;;10.91;96.62
30110;BME280;14965;50.660;13.226;2023-05-11T02:09:20;94589.00;;;10.86;96.62
30110;BME280;14965;50.660;13.226;2023-05-11T02:12:21;94581.94;;;10.85;96.36
30110;BME280;14965;50.660;13.226;2023-05-11T02:15:08;94583.47;;;10.86;96.02
30110;BME280;14965;50.660;13.226;2023-05-11T02:18:20;94593.31;;;10.87;96.05
30110;BME280;14965;50.660;13.226;2023-05-11T02:21:34;94581.63;;;10.83;95.60
30110;BME280;14965;50.660;13.226;2023-05-11T02:24:41;94582.06;;;10.81;95.52
30110;BME280;14965;50.660;13.226;2023-05-11T02:27:33;94580.97;;;10.79;95.16
30110;BME280;14965;50.660;13.226;2023-05-11T02:30:38;94579.75;;;10.80;95.06
30110;BME280;14965;50.660;13.226;2023-05-11T02:42:00;94585.84;;;10.75;94.29
30110;BME280;14965;50.660;13.226;2023-05-11T02:48:20;94583.75;;;10.79;93.72
30110;BME280;14965;50.660;13.226;2023-05-11T02:54:56;94581.88;;;10.76;92.45
30110;BME280;14965;50.660;13.226;2023-05-11T03:01:14;94586.84;;;10.68;91.81
30110;BME280;14965;50.660;13.226;2023-05-11T03:14:58;94587.97;;;10.70;91.29
30110;BME280;14965;50.660;13.226;2023-05-11T03:17:57;94589.38;;;10.75;91.27
30110;BME280;14965;50.660;13.226;2023-05-11T03:21:08;94589.25;;;10.79;91.37
30110;BME280;14965;50.660;13.226;2023-05-11T03:24:00;94582.50;;;10.80;91.27
30110;BME280;14965;50.660;13.226;2023-05-11T03:26:49;94588.81;;;10.80;91.00
30110;BME280;14965;50.660;13.226;2023-05-11T03:29:50;94590.47;;;10.78;90.52
30110;BME280;14965;50.660;13.226;2023-05-11T03:32:20;94595.88;;;10.81;91.00
30110;BME280;14965;50.660;13.226;2023-05-11T03:34:47;94583.59;;;10.82;90.27
30110;BME280;14965;50.660;13.226;2023-05-11T03:40:29;94590.16;;;10.76;90.15
30110;BME280;14965;50.660;13.226;2023-05-11T03:43:09;94592.25;;;10.71;89.87
30110;BME280;14965;50.660;13.226;2023-05-11T03:45:58;94592.94;;;10.63;89.92
30110;BME280;14965;50.660;13.226;2023-05-11T03:48:50;94593.94;;;10.56;89.96
30110;BME280;14965;50.660;13.226;2023-05-11T03:51:53;94597.72;;;10.50;90.14
30110;BME280;14965;50.660;13.226;2023-05-11T03:54:19;94601.56;;;10.52;90.32
30110;BME280;14965;50.660;13.226;2023-05-11T03:56:48;94595.94;;;10.56;90.71
30110;BME280;14965;50.660;13.226;2023-05-11T03:59:23;94593.53;;;10.58;90.61
30110;BME280;14965;50.660;13.226;2023-05-11T04:02:01;94590.88;;;10.54;90.39
30110;BME280;14965;50.660;13.226;2023-05-11T04:04:51;94592.72;;;10.57;90.50
30110;BME280;14965;50.660;13.226;2023-05-11T04:07:38;94584.97;;;10.65;90.86
30110;BME280;14965;50.660;13.226;2023-05-11T04:10:12;94598.34;;;10.66;90.75
30110;BME280;14965;50.660;13.226;2023-05-11T04:13:39;94593.78;;;10.72;90.67
30110;BME280;14965;50.660;13.226;2023-05-11T04:16:17;94592.03;;;10.79;90.38
30110;BME280;14965;50.660;13.226;2023-05-11T04:19:11;94594.53;;;10.86;89.87
30110;BME280;14965;50.660;13.226;2023-05-11T04:21:39;94595.88;;;10.81;89.40
30110;BME280;14965;50.660;13.226;2023-05-11T04:24:24;94596.63;;;10.82;89.26
30110;BME280;14965;50.660;13.226;2023-05-11T04:26:56;94598.31;;;10.79;88.74
30110;BME280;14965;50.660;13.226;2023-05-11T04:29:47;94600.09;;;10.73;88.89
30110;BME280;14965;50.660;13.226;2023-05-11T04:32:13;94613.31;;;10.78;89.13
30110;BME280;14965;50.660;13.226;2023-05-11T04:34:44;94608.69;;;10.88;89.00
30110;BME280;14965;50.660;13.226;2023-05-11T04:37:15;94606.56;;;10.92;88.72
30110;BME280;14965;50.660;13.226;2023-05-11T04:39:42;94614.84;;;10.92;88.01
30110;BME280;14965;50.660;13.226;2023-05-11T04:42:37;94607.75;;;10.91;87.16
30110;BME280;14965;50.660;13.226;2023-05-11T04:45:31;94604.38;;;10.87;87.90
30110;BME280;14965;50.660;13.226;2023-05-11T04:49:15;94606.31;;;10.99;88.43
30110;BME280;14965;50.660;13.226;2023-05-11T04:51:28;94609.28;;;11.05;87.90
30110;BME280;14965;50.660;13.226;2023-05-11T04:54:13;94609.81;;;11.12;87.38
30110;BME280;14965;50.660;13.226;2023-05-11T04:57:10;94609.59;;;11.07;86.73
30110;BME280;14965;50.660;13.226;2023-05-11T04:59:42;94602.06;;;11.07;86.46
30110;BME280;14965;50.660;13.226;2023-05-11T05:02:28;94609.81;;;11.12;86.70
30110;BME280;14965;50.660;13.226;2023-05-11T05:05:10;94608.00;;;11.18;86.48
30110;BME280;14965;50.660;13.226;2023-05-11T05:07:39;94612.97;;;11.23;85.70
30110;BME280;14965;50.660;13.226;2023-05-11T05:10:17;94610.97;;;11.24;85.50
30110;BME280;14965;50.660;13.226;2023-05-11T05:12:50;94610.41;;;11.29;84.11
30110;BME280;14965;50.660;13.226;2023-05-11T05:15:18;94610.06;;;11.27;84.34
30110;BME280;14965;50.660;13.226;2023-05-11T05:18:06;94613.41;;;11.22;84.42
30110;BME280;14965;50.660;13.226;2023-05-11T05:21:14;94615.06;;;11.19;84.75
30110;BME280;14965;50.660;13.226;2023-05-11T05:23:42;94613.34;;;11.13;85.26
30110;BME280;14965;50.660;13.226;2023-05-11T05:26:08;94615.81;;;10.98;85.90
30110;BME280;14965;50.660;13.226;2023-05-11T05:28:53;94624.03;;;10.89;86.50
30110;BME280;14965;50.660;13.226;2023-05-11T05:31:36;94624.16;;;10.85;86.92
30110;BME280;14965;50.660;13.226;2023-05-11T05:34:08;94622.38;;;10.91;87.68
30110;BME280;14965;50.660;13.226;2023-05-11T05:36:41;94634.28;;;11.01;87.74
30110;BME280;14965;50.660;13.226;2023-05-11T05:39:12;94627.53;;;11.02;86.75
30110;BME280;14965;50.660;13.226;2023-05-11T05:41:38;94632.81;;;11.09;86.43
30110;BME280;14965;50.660;13.226;2023-05-11T05:44:16;94626.41;;;11.12;85.17
30110;BME280;14965;50.660;13.226;2023-05-11T05:46:42;94623.66;;;11.34;84.55
30110;BME280;14965;50.660;13.226;2023-05-11T05:49:12;94621.84;;;11.62;83.14
30110;BME280;14965;50.660;13.226;2023-05-11T05:51:41;94626.25;;;11.82;82.15
30110;BME280;14965;50.660;13.226;2023-05-11T05:54:07;94630.78;;;11.88;79.71
30110;BME280;14965;50.660;13.226;2023-05-11T05:56:35;94630.66;;;11.92;80.84
30110;BME280;14965;50.660;13.226;2023-05-11T05:59:13;94627.81;;;12.05;79.66
30110;BME280;14965;50.660;13.226;2023-05-11T06:01:39;94626.84;;;12.30;78.58
30110;BME280;14965;50.660;13.226;2023-05-11T06:04:05;94642.03;;;12.75;77.86
30110;BME280;14965;50.660;13.226;2023-05-11T06:06:30;94625.47;;;13.20;76.01
30110;BME280;14965;50.660;13.226;2023-05-11T06:08:56;94637.84;;;13.38;72.65
30110;BME280;14965;50.660;13.226;2023-05-11T06:11:24;94627.50;;;13.29;73.38
30110;BME280;14965;50.660;13.226;2023-05-11T06:14:02;94636.56;;;13.20;74.08
30110;BME280;14965;50.660;13.226;2023-05-11T06:16:34;94635.94;;;13.16;73.49
30110;BME280;14965;50.660;13.226;2023-05-11T06:19:02;94632.88;;;13.69;73.06
30110;BME280;14965;50.660;13.226;2023-05-11T06:21:32;94642.78;;;14.74;68.12
30110;BME280;14965;50.660;13.226;2023-05-11T06:24:16;94644.06;;;14.87;66.16
30110;BME280;14965;50.660;13.226;2023-05-11T06:26:42;94638.69;;;14.60;68.11
30110;BME280;14965;50.660;13.226;2023-05-11T06:29:10;94633.94;;;14.51;67.86
30110;BME280;14965;50.660;13.226;2023-05-11T06:35:10;94635.13;;;14.59;69.09
30110;BME280;14965;50.660;13.226;2023-05-11T06:37:36;94625.75;;;14.81;67.89
30110;BME280;14965;50.660;13.226;2023-05-11T06:40:03;94632.53;;;15.28;66.28
30110;BME280;14965;50.660;13.226;2023-05-11T06:42:35;94626.13;;;15.36;66.17
30110;BME280;14965;50.660;13.226;2023-05-11T06:45:18;94609.06;;;15.82;65.47
30110;BME280;14965;50.660;13.226;2023-05-11T06:47:54;94611.22;;;16.52;62.80
30110;BME280;14965;50.660;13.226;2023-05-11T06:50:30;94609.41;;;17.20;59.72
30110;BME280;14965;50.660;13.226;2023-05-11T06:52:56;94603.72;;;17.55;56.90
30110;BME280;14965;50.660;13.226;2023-05-11T06:55:22;94610.69;;;17.85;56.48
30110;BME280;14965;50.660;13.226;2023-05-11T06:57:49;94605.06;;;18.11;55.12
30110;BME280;14965;50.660;13.226;2023-05-11T07:00:27;94609.03;;;18.94;53.11
30110;BME280;14965;50.660;13.226;2023-05-11T07:02:53;94611.47;;;19.24;52.04
30110;BME280;14965;50.660;13.226;2023-05-11T07:05:19;94606.16;;;19.31;51.38
30110;BME280;14965;50.660;13.226;2023-05-11T07:07:46;94622.19;;;18.82;51.47
30110;BME280;14965;50.660;13.226;2023-05-11T07:10:12;94616.00;;;18.73;52.32
30110;BME280;14965;50.660;13.226;2023-05-11T07:12:43;94620.91;;;18.83;51.74
30110;BME280;14965;50.660;13.226;2023-05-11T07:15:18;94625.09;;;18.67;51.54
30110;BME280;14965;50.660;13.226;2023-05-11T07:17:44;94629.06;;;18.55;51.66
30110;BME280;14965;50.660;13.226;2023-05-11T07:20:11;94626.94;;;18.71;52.31
30110;BME280;14965;50.660;13.226;2023-05-11T07:22:37;94629.06;;;18.87;50.65
30110;BME280;14965;50.660;13.226;2023-05-11T07:25:06;94635.19;;;18.59;51.70
30110;BME280;14965;50.660;13.226;2023-05-11T07:27:32;94627.94;;;18.41;51.91
30110;BME280;14965;50.660;13.226;2023-05-11T07:29:58;94625.72;;;18.77;52.26
30110;BME280;14965;50.660;13.226;2023-05-11T07:32:24;94636.22;;;19.36;50.92
30110;BME280;14965;50.660;13.226;2023-05-11T07:34:50;94624.19;;;19.79;49.79
30110;BME280;14965;50.660;13.226;2023-05-11T07:37:16;94634.19;;;20.08;49.09
30110;BME280;14965;50.660;13.226;2023-05-11T07:39:42;94638.13;;;19.62;48.25
30110;BME280;14965;50.660;13.226;2023-05-11T07:42:09;94639.25;;;19.27;49.30
30110;BME280;14965;50.660;13.226;2023-05-11T07:44:35;94644.41;;;19.51;49.20
30110;BME280;14965;50.660;13.226;2023-05-11T07:47:01;94641.25;;;19.81;48.67
30110;BME280;14965;50.660;13.226;2023-05-11T07:49:27;94644.78;;;19.70;48.53
30110;BME280;14965;50.660;13.226;2023-05-11T07:51:53;94645.16;;;19.46;49.69
30110;BME280;14965;50.660;13.226;2023-05-11T07:54:19;94649.66;;;19.27;50.10
30110;BME280;14965;50.660;13.226;2023-05-11T07:56:45;94651.97;;;18.85;50.75
30110;BME280;14965;50.660;13.226;2023-05-11T07:59:12;94649.19;;;18.28;51.84
30110;BME280;14965;50.660;13.226;2023-05-11T08:01:38;94651.31;;;18.12;52.76
30110;BME280;14965;50.660;13.226;2023-05-11T08:04:04;94653.78;;;18.31;52.77
30110;BME280;14965;50.660;13.226;2023-05-11T08:06:29;94652.06;;;18.39;52.44
30110;BME280;14965;50.660;13.226;2023-05-11T08:08:55;94658.50;;;18.19;52.82
30110;BME280;14965;50.660;13.226;2023-05-11T08:11:21;94657.78;;;17.98;53.74
30110;BME280;14965;50.660;13.226;2023-05-11T08:13:47;94656.84;;;17.60;55.19
30110;BME280;14965;50.660;13.226;2023-05-11T08:16:14;94666.03;;;17.66;55.15
30110;BME280;14965;50.660;13.226;2023-05-11T08:18:40;94666.94;;;17.99;55.11
30110;BME280;14965;50.660;13.226;2023-05-11T08:21:06;94655.94;;;18.15;53.78
30110;BME280;14965;50.660;13.226;2023-05-11T08:23:32;94662.28;;;18.16;53.41
30110;BME280;14965;50.660;13.226;2023-05-11T08:25:58;94665.25;;;18.07;53.99
30110;BME280;14965;50.660;13.226;2023-05-11T08:28:24;94659.88;;;18.03;54.28
30110;BME280;14965;50.660;13.226;2023-05-11T08:30:54;94667.91;;;18.22;54.11
30110;BME280;14965;50.660;13.226;2023-05-11T08:33:21;94662.78;;;18.14;53.06
30110;BME280;14965;50.660;13.226;2023-05-11T08:35:49;94669.56;;;18.08;53.57
30110;BME280;14965;50.660;13.226;2023-05-11T08:38:15;94667.22;;;18.27;55.39
30110;BME280;14965;50.660;13.226;2023-05-11T08:40:42;94663.78;;;18.43;52.25
30110;BME280;14965;50.660;13.226;2023-05-11T08:43:12;94664.34;;;18.47;51.89
30110;BME280;14965;50.660;13.226;2023-05-11T08:45:41;94653.91;;;18.74;52.51
30110;BME280;14965;50.660;13.226;2023-05-11T08:48:09;94668.16;;;18.76;50.91
30110;BME280;14965;50.660;13.226;2023-05-11T08:50:36;94663.72;;;18.63;51.12
30110;BME280;14965;50.660;13.226;2023-05-11T08:53:02;94662.34;;;18.79;50.91
30110;BME280;14965;50.660;13.226;2023-05-11T08:55:31;94659.66;;;18.64;51.21
30110;BME280;14965;50.660;13.226;2023-05-11T08:58:01;94660.88;;;18.58;50.90
30110;BME280;14965;50.660;13.226;2023-05-11T09:00:30;94655.38;;;18.69;50.47
30110;BME280;14965;50.660;13.226;2023-05-11T09:02:57;94663.19;;;18.91;50.69
30110;BME280;14965;50.660;13.226;2023-05-11T09:05:25;94664.63;;;19.18;50.54
30110;BME280;14965;50.660;13.226;2023-05-11T09:07:59;94664.56;;;19.55;49.80
30110;BME280;14965;50.660;13.226;2023-05-11T09:10:25;94667.88;;;19.54;48.42
30110;BME280;14965;50.660;13.226;2023-05-11T09:12:52;94674.75;;;19.10;50.08
30110;BME280;14965;50.660;13.226;2023-05-11T09:15:18;94671.69;;;19.08;50.12
30110;BME280;14965;50.660;13.226;2023-05-11T09:17:44;94672.19;;;19.06;49.91
30110;BME280;14965;50.660;13.226;2023-05-11T09:20:11;94668.34;;;18.98;49.64
30110;BME280;14965;50.660;13.226;2023-05-11T09:22:46;94671.06;;;18.92;50.02
30110;BME280;14965;50.660;13.226;2023-05-11T09:25:15;94675.88;;;18.86;50.90
30110;BME280;14965;50.660;13.226;2023-05-11T09:27:41;94672.91;;;19.01;49.83
30110;BME280;14965;50.660;13.226;2023-05-11T09:30:12;94684.03;;;18.90;50.11
30110;BME280;14965;50.660;13.226;2023-05-11T09:32:50;94670.41;;;19.09;49.38
30110;BME280;14965;50.660;13.226;2023-05-11T09:35:22;94671.41;;;19.06;49.60
30110;BME280;14965;50.660;13.226;2023-05-11T09:38:00;94664.63;;;19.18;49.84
30110;BME280;14965;50.660;13.226;2023-05-11T09:40:29;94675.13;;;19.29;49.18
30110;BME280;14965;50.660;13.226;2023-05-11T09:42:55;94670.78;;;19.28;49.01
30110;BME280;14965;50.660;13.226;2023-05-11T09:45:37;94676.75;;;19.47;49.18
30110;BME280;14965;50.660;13.226;2023-05-11T09:48:05;94671.44;;;19.60;48.25
30110;BME280;14965;50.660;13.226;2023-05-11T09:50:32;94672.72;;;19.59;47.32
30110;BME280;14965;50.660;13.226;2023-05-11T09:52:59;94670.59;;;19.37;47.84
30110;BME280;14965;50.660;13.226;2023-05-11T09:55:25;94674.22;;;19.49;48.91
30110;BME280;14965;50.660;13.226;2023-05-11T09:57:56;94662.78;;;19.58;47.83
30110;BME280;14965;50.660;13.226;2023-05-11T10:00:23;94661.22;;;19.51;47.83
30110;BME280;14965;50.660;13.226;2023-05-11T10:02:59;94663.78;;;19.49;48.14
30110;BME280;14965;50.660;13.226;2023-05-11T10:05:25;94664.47;;;19.33;47.10
30110;BME280;14965;50.660;13.226;2023-05-11T10:07:56;94663.19;;;19.34;47.86
30110;BME280;14965;50.660;13.226;2023-05-11T10:10:25;94663.59;;;19.64;48.46
30110;BME280;14965;50.660;13.226;2023-05-11T10:12:53;94659.63;;;19.87;46.95
30110;BME280;14965;50.660;13.226;2023-05-11T10:15:22;94666.81;;;19.51;47.51
30110;BME280;14965;50.660;13.226;2023-05-11T10:17:48;94658.94;;;19.50;47.72
30110;BME280;14965;50.660;13.226;2023-05-11T10:20:14;94663.63;;;19.70;47.79
30110;BME280;14965;50.660;13.226;2023-05-11T10:22:41;94659.81;;;19.73;47.07
30110;BME280;14965;50.660;13.226;2023-05-11T10:25:09;94654.25;;;19.89;47.70
30110;BME280;14965;50.660;13.226;2023-05-11T10:27:36;94641.31;;;20.03;47.07
30110;BME280;14965;50.660;13.226;2023-05-11T10:30:07;94637.72;;;19.86;47.85
30110;BME280;14965;50.660;13.226;2023-05-11T10:32:36;94645.56;;;19.76;46.10
30110;BME280;14965;50.660;13.226;2023-05-11T10:35:02;94647.41;;;19.96;46.96
30110;BME280;14965;50.660;13.226;2023-05-11T10:37:29;94653.00;;;19.96;45.24
30110;BME280;14965;50.660;13.226;2023-05-11T10:39:58;94646.09;;;19.80;46.94
30110;BME280;14965;50.660;13.226;2023-05-11T10:45:48;94636.44;;;19.93;45.40
30110;BME280;14965;50.660;13.226;2023-05-11T10:49:03;94641.50;;;19.83;45.37
30110;BME280;14965;50.660;13.226;2023-05-11T10:51:59;94651.75;;;19.37;46.27
30110;BME280;14965;50.660;13.226;2023-05-11T10:54:48;94638.13;;;19.13;46.61
30110;BME280;14965;50.660;13.226;2023-05-11T10:57:38;94647.59;;;19.22;48.11
30110;BME280;14965;50.660;13.226;2023-05-11T11:01:17;94644.34;;;19.34;48.24
30110;BME280;14965;50.660;13.226;2023-05-11T11:03:59;94643.53;;;19.77;48.09
30110;BME280;14965;50.660;13.226;2023-05-11T11:06:27;94643.09;;;19.95;45.85
30110;BME280;14965;50.660;13.226;2023-05-11T11:08:58;94666.50;;;19.86;44.31
30110;BME280;14965;50.660;13.226;2023-05-11T11:11:33;94651.16;;;19.76;43.97
30110;BME280;14965;50.660;13.226;2023-05-11T11:14:01;94652.44;;;19.70;43.35
30110;BME280;14965;50.660;13.226;2023-05-11T11:16:29;94653.03;;;19.42;44.12
30110;BME280;14965;50.660;13.226;2023-05-11T11:22:01;94660.09;;;19.26;45.61
30110;BME280;14965;50.660;13.226;2023-05-11T11:24:45;94654.97;;;19.19;46.21
30110;BME280;14965;50.660;13.226;2023-05-11T11:27:12;94662.78;;;19.09;44.81
30110;BME280;14965;50.660;13.226;2023-05-11T11:29:39;94654.63;;;19.06;44.38
30110;BME280;14965;50.660;13.226;2023-05-11T11:32:26;94655.56;;;18.91;44.52
30110;BME280;14965;50.660;13.226;2023-05-11T11:34:52;94663.28;;;19.02;45.49
30110;BME280;14965;50.660;13.226;2023-05-11T11:37:18;94657.03;;;19.24;46.27
30110;BME280;14965;50.660;13.226;2023-05-11T11:39:47;94665.72;;;19.32;44.82
30110;BME280;14965;50.660;13.226;2023-05-11T11:42:15;94669.44;;;19.17;44.66
30110;BME280;14965;50.660;13.226;2023-05-11T11:44:43;94681.91;;;19.11;45.34
30110;BME280;14965;50.660;13.226;2023-05-11T11:47:13;94665.44;;;18.87;43.98
30110;BME280;14965;50.660;13.226;2023-05-11T11:49:43;94660.66;;;18.61;44.32
30110;BME280;14965;50.660;13.226;2023-05-11T11:52:11;94676.06;;;18.51;44.50
30110;BME280;14965;50.660;13.226;2023-05-11T11:54:37;94666.94;;;18.25;44.86
30110;BME280;14965;50.660;13.226;2023-05-11T11:57:04;94664.44;;;18.27;45.36
30110;BME280;14965;50.660;13.226;2023-05-11T11:59:50;94674.34;;;18.28;46.31
30110;BME280;14965;50.660;13.226;2023-05-11T12:02:17;94661.63;;;18.27;46.19
30110;BME280;14965;50.660;13.226;2023-05-11T12:04:56;94658.56;;;18.25;45.26
30110;BME280;14965;50.660;13.226;2023-05-11T12:07:24;94667.28;;;18.06;45.64
30110;BME280;14965;50.660;13.226;2023-05-11T12:09:51;94666.72;;;18.02;46.70
30110;BME280;14965;50.660;13.226;2023-05-11T12:12:17;94672.03;;;18.00;45.65
30110;BME280;14965;50.660;13.226;2023-05-11T12:14:44;94671.09;;;18.09;45.14
30110;BME280;14965;50.660;13.226;2023-05-11T12:17:11;94672.63;;;18.10;44.49
30110;BME280;14965;50.660;13.226;2023-05-11T12:19:36;94668.94;;;18.19;44.89
30110;BME280;14965;50.660;13.226;2023-05-11T12:22:04;94683.22;;;18.26;45.55
30110;BME280;14965;50.660;13.226;2023-05-11T12:24:30;94678.88;;;17.99;46.66
30110;BME280;14965;50.660;13.226;2023-05-11T12:26:56;94678.31;;;17.34;49.19
30110;BME280;14965;50.660;13.226;2023-05-11T12:29:22;94682.88;;;17.31;49.21
30110;BME280;14965;50.660;13.226;2023-05-11T12:31:48;94691.28;;;17.16;49.65
30110;BME280;14965;50.660;13.226;2023-05-11T12:34:15;94685.28;;;17.03;49.47
30110;BME280;14965;50.660;13.226;2023-05-11T12:36:43;94695.63;;;16.82;50.29
30110;BME280;14965;50.660;13.226;2023-05-11T12:39:17;94696.38;;;16.83;49.48
30110;BME280;14965;50.660;13.226;2023-05-11T12:41:43;94691.09;;;16.70;50.15
30110;BME280;14965;50.660;13.226;2023-05-11T12:44:10;94690.41;;;16.90;49.69
30110;BME280;14965;50.660;13.226;2023-05-11T12:46:36;94691.03;;;17.14;47.87
30110;BME280;14965;50.660;13.226;2023-05-11T12:49:03;94691.78;;;17.15;47.87
30110;BME280;14965;50.660;13.226;2023-05-11T12:51:51;94699.09;;;17.12;48.59
30110;BME280;14965;50.660;13.226;2023-05-11T12:54:28;94692.47;;;17.30;48.21
30110;BME280;14965;50.660;13.226;2023-05-11T12:56:56;94698.97;;;17.22;47.21
30110;BME280;14965;50.660;13.226;2023-05-11T12:59:31;94698.91;;;17.16;48.06
30110;BME280;14965;50.660;13.226;2023-05-11T13:02:16;94693.91;;;17.05;47.54
30110;BME280;14965;50.660;13.226;2023-05-11T13:05:10;94691.81;;;17.00;47.90
30110;BME280;14965;50.660;13.226;2023-05-11T13:07:36;94696.31;;;17.12;47.40
30110;BME280;14965;50.660;13.226;2023-05-11T13:10:10;94689.22;;;17.32;47.03
30110;BME280;14965;50.660;13.226;2023-05-11T13:12:47;94681.78;;;17.43;46.64
30110;BME280;14965;50.660;13.226;2023-05-11T13:15:13;94687.22;;;17.53;46.29
30110;BME280;14965;50.660;13.226;2023-05-11T13:17:43;94679.31;;;17.51;46.33
30110;BME280;14965;50.660;13.226;2023-05-11T13:20:20;94689.34;;;17.63;45.17
30110;BME280;14965;50.660;13.226;2023-05-11T13:22:47;94684.81;;;17.66;45.52
30110;BME280;14965;50.660;13.226;2023-05-11T13:25:22;94678.19;;;17.43;45.05
30110;BME280;14965;50.660;13.226;2023-05-11T13:27:48;94686.44;;;17.32;44.56
30110;BME280;14965;50.660;13.226;2023-05-11T13:30:17;94680.28;;;17.28;45.08
30110;BME280;14965;50.660;13.226;2023-05-11T13:32:43;94680.72;;;17.41;45.35
30110;BME280;14965;50.660;13.226;2023-05-11T13:35:09;94685.88;;;17.48;44.91
30110;BME280;14965;50.660;13.226;2023-05-11T13:37:35;94686.56;;;17.43;45.05
30110;BME280;14965;50.660;13.226;2023-05-11T13:40:01;94691.59;;;17.39;45.36
30110;BME280;14965;50.660;13.226;2023-05-11T13:42:30;94687.19;;;17.32;45.03
30110;BME280;14965;50.660;13.226;2023-05-11T13:44:55;94689.59;;;17.39;44.80
30110;BME280;14965;50.660;13.226;2023-05-11T13:47:21;94692.03;;;17.52;43.95
30110;BME280;14965;50.660;13.226;2023-05-11T13:49:47;94671.22;;;17.33;43.69
30110;BME280;14965;50.660;13.226;2023-05-11T13:52:13;94679.66;;;17.38;44.15
30110;BME280;14965;50.660;13.226;2023-05-11T13:54:39;94683.72;;;17.58;44.22
30110;BME280;14965;50.660;13.226;2023-05-11T13:57:05;94681.28;;;17.65;42.95
30110;BME280;14965;50.660;13.226;2023-05-11T13:59:33;94690.41;;;17.66;42.50
30110;BME280;14965;50.660;13.226;2023-05-11T14:01:59;94679.81;;;17.70;42.33
30110;BME280;14965;50.660;13.226;2023-05-11T14:04:25;94692.78;;;17.73;42.73
30110;BME280;14965;50.660;13.226;2023-05-11T14:06:51;94676.50;;;17.72;42.32
30110;BME280;14965;50.660;13.226;2023-05-11T14:09:16;94674.59;;;17.78;42.49